Time;durP1;ratioP1;P1;durP2;ratioP2;P2;SDS_P1;SDS_P2;PMS_P1;PMS_P2;Temp;Humidity;BMP_temperature;BMP_pressure;BME280_temperature;BME280_humidity;BME280_pressure;Samples;Min_cycle;Max_cycle;Signal;HPM_P1;HPM_P2
2023/08/30 00:00:39;;;;;;;26.15;23.65;;;13.40;99.90;;;;;;4897239;29;20855;-64
2023/08/30 00:03:06;;;;;;;27.13;24.48;;;13.40;99.90;;;;;;4914002;29;20218;-63
2023/08/30 00:05:32;;;;;;;28.33;25.63;;;13.40;99.90;;;;;;4897773;29;20048;-63
2023/08/30 00:07:57;;;;;;;27.75;25.13;;;13.40;99.90;;;;;;4897276;29;20058;-64
2023/08/30 00:10:23;;;;;;;29.17;26.55;;;13.40;99.90;;;;;;4896452;29;20051;-63
2023/08/30 00:12:49;;;;;;;29.83;26.85;;;13.40;99.90;;;;;;4896661;29;20604;-63
2023/08/30 00:15:15;;;;;;;29.70;26.88;;;13.30;99.90;;;;;;4897001;29;20059;-63
2023/08/30 00:17:40;;;;;;;29.58;26.70;;;13.30;99.90;;;;;;4897203;29;20066;-64
2023/08/30 00:20:07;;;;;;;30.48;27.58;;;13.30;99.90;;;;;;4915480;29;20956;-64
2023/08/30 00:22:33;;;;;;;30.83;27.92;;;13.30;99.90;;;;;;4896951;29;20051;-64
2023/08/30 00:24:59;;;;;;;30.73;27.55;;;13.30;99.90;;;;;;4913139;29;20522;-64
2023/08/30 00:27:24;;;;;;;32.15;28.95;;;13.20;99.90;;;;;;4881399;29;20180;-64
2023/08/30 00:29:50;;;;;;;33.55;30.33;;;13.10;99.90;;;;;;4896836;29;20138;-64
2023/08/30 00:32:16;;;;;;;33.20;29.90;;;13.00;99.90;;;;;;4898839;29;20505;-64
2023/08/30 00:34:41;;;;;;;34.25;30.85;;;13.00;99.90;;;;;;4912144;29;20036;-64
2023/08/30 00:37:08;;;;;;;31.98;28.83;;;12.90;99.90;;;;;;4897011;29;20035;-64
2023/08/30 00:39:37;;;;;;;33.45;30.23;;;12.90;99.90;;;;;;4881681;29;21378;-64
2023/08/30 00:42:05;;;;;;;36.65;33.13;;;12.90;99.90;;;;;;4912215;29;20123;-64
2023/08/30 00:44:32;;;;;;;32.97;29.50;;;12.80;99.90;;;;;;4912964;29;20106;-64
2023/08/30 00:46:58;;;;;;;36.75;32.83;;;12.80;99.90;;;;;;4915289;29;20173;-64
2023/08/30 00:49:24;;;;;;;40.33;36.25;;;12.70;99.90;;;;;;4913133;29;20518;-64
2023/08/30 00:51:50;;;;;;;37.53;33.63;;;12.60;99.90;;;;;;4914620;29;20118;-64
2023/08/30 00:54:16;;;;;;;37.75;34.00;;;12.60;99.90;;;;;;4912399;29;20038;-64
2023/08/30 00:56:43;;;;;;;39.83;35.60;;;12.60;99.90;;;;;;4897794;29;20441;-64
2023/08/30 00:59:09;;;;;;;39.75;35.67;;;12.60;99.90;;;;;;4913216;29;20123;-64
2023/08/30 01:01:34;;;;;;;41.47;37.08;;;12.60;99.90;;;;;;4915356;29;20036;-64
2023/08/30 01:04:00;;;;;;;41.03;36.63;;;12.60;99.90;;;;;;4896808;29;20047;-64
2023/08/30 01:06:26;;;;;;;40.47;36.20;;;12.50;99.90;;;;;;4896971;29;20335;-63
2023/08/30 01:08:52;;;;;;;45.95;41.20;;;12.60;99.90;;;;;;4913443;29;20048;-63
2023/08/30 01:11:36;;;;;;;54.67;48.65;;;12.50;99.90;;;;;;4914231;29;20226;-64
2023/08/30 01:14:08;;;;;;;63.55;52.83;;;12.50;99.90;;;;;;4914776;29;20253;-64
2023/08/30 01:16:38;;;;;;;64.40;53.87;;;12.40;99.90;;;;;;4915854;29;20733;-64
2023/08/30 01:19:41;;;;;;;68.40;56.33;;;12.50;99.90;;;;;;4916097;29;20051;-64
2023/08/30 01:22:14;;;;;;;67.07;56.28;;;12.60;99.90;;;;;;4932500;28;20111;-64
2023/08/30 01:25:16;;;;;;;71.28;56.38;;;12.50;99.90;;;;;;4899856;29;20051;-64
2023/08/30 01:27:43;;;;;;;63.75;52.80;;;12.50;99.90;;;;;;4909478;28;20052;-64
2023/08/30 01:30:10;;;;;;;67.00;52.88;;;12.60;99.90;;;;;;4917483;29;20447;-64
2023/08/30 01:32:38;;;;;;;70.63;53.10;;;12.50;99.90;;;;;;4915293;29;20124;-64
2023/08/30 01:35:06;;;;;;;60.83;50.90;;;12.50;99.90;;;;;;4899666;29;20051;-64
2023/08/30 01:37:33;;;;;;;54.17;46.17;;;12.50;99.90;;;;;;4915236;29;20036;-64
2023/08/30 01:39:59;;;;;;;51.38;44.80;;;12.40;99.90;;;;;;4916747;29;20123;-64
2023/08/30 01:42:26;;;;;;;47.58;42.38;;;12.40;99.90;;;;;;4917033;29;20047;-64
2023/08/30 01:44:58;;;;;;;49.78;42.63;;;12.50;99.90;;;;;;4886086;29;20646;-64
2023/08/30 01:47:26;;;;;;;46.30;40.45;;;12.50;99.90;;;;;;4915588;29;20126;-64
2023/08/30 01:49:53;;;;;;;54.35;44.63;;;12.40;99.90;;;;;;4914567;29;20046;-63
2023/08/30 01:52:21;;;;;;;50.90;43.55;;;12.50;99.90;;;;;;4900488;29;20537;-63
2023/08/30 01:54:48;;;;;;;49.72;41.95;;;12.60;99.90;;;;;;4917577;29;20087;-64
2023/08/30 01:57:14;;;;;;;55.45;44.90;;;12.50;99.90;;;;;;4916378;29;20047;-64
2023/08/30 01:59:39;;;;;;;56.45;43.67;;;12.50;99.90;;;;;;4916389;29;20050;-64
2023/08/30 02:02:05;;;;;;;50.15;41.90;;;12.50;99.90;;;;;;4899569;29;20048;-65
2023/08/30 02:04:32;;;;;;;50.38;41.42;;;12.50;99.90;;;;;;4914721;29;20124;-64
2023/08/30 02:07:03;;;;;;;47.47;39.42;;;12.50;99.90;;;;;;4899550;29;20039;-64
2023/08/30 02:09:39;;;;;;;46.85;41.67;;;12.50;99.90;;;;;;4915540;29;20369;-64
2023/08/30 02:12:10;;;;;;;43.75;38.45;;;12.50;99.90;;;;;;4914675;29;20058;-64
2023/08/30 02:14:38;;;;;;;42.63;37.85;;;12.40;99.90;;;;;;4914771;29;20537;-64
2023/08/30 02:17:05;;;;;;;40.40;35.42;;;12.40;99.90;;;;;;4930650;29;20301;-64
2023/08/30 02:19:32;;;;;;;40.35;34.60;;;12.30;99.90;;;;;;4915641;29;20054;-63
2023/08/30 02:21:58;;;;;;;40.28;35.83;;;12.30;99.90;;;;;;4917910;29;20103;-64
2023/08/30 02:24:24;;;;;;;40.42;36.17;;;12.30;99.90;;;;;;4898594;29;20051;-64
2023/08/30 02:26:50;;;;;;;41.05;35.67;;;12.30;99.90;;;;;;4914527;29;20276;-64
2023/08/30 02:29:15;;;;;;;41.20;35.83;;;12.30;99.90;;;;;;4898966;29;20142;-64
2023/08/30 02:31:41;;;;;;;37.60;33.55;;;12.20;99.90;;;;;;4899080;29;20071;-64
2023/08/30 02:34:07;;;;;;;41.70;36.80;;;12.20;99.90;;;;;;4916728;29;20043;-64
2023/08/30 02:36:32;;;;;;;43.90;37.33;;;12.30;99.90;;;;;;4916872;29;20130;-64
2023/08/30 02:38:58;;;;;;;40.05;35.78;;;12.20;99.90;;;;;;4916970;29;20098;-64
2023/08/30 02:41:24;;;;;;;38.08;32.83;;;12.20;99.90;;;;;;4882815;29;20070;-64
2023/08/30 02:43:49;;;;;;;37.67;33.58;;;12.00;99.90;;;;;;4898858;29;20541;-64
2023/08/30 02:46:15;;;;;;;39.55;34.55;;;12.00;99.90;;;;;;4898559;29;20078;-64
2023/08/30 02:48:41;;;;;;;38.63;33.95;;;11.90;99.90;;;;;;4914446;29;20047;-64
2023/08/30 02:51:06;;;;;;;39.45;32.85;;;12.00;99.90;;;;;;4914100;29;20146;-64
2023/08/30 02:53:32;;;;;;;36.72;32.88;;;12.00;99.90;;;;;;4914339;29;20054;-64
2023/08/30 02:55:58;;;;;;;41.00;35.05;;;11.90;99.90;;;;;;4913936;29;20054;-64
2023/08/30 02:58:23;;;;;;;43.65;36.42;;;12.00;99.90;;;;;;4914118;29;20314;-64
2023/08/30 03:00:49;;;;;;;38.30;34.15;;;11.80;99.90;;;;;;4915467;29;20678;-64
2023/08/30 03:03:15;;;;;;;40.60;33.83;;;12.00;99.90;;;;;;4914041;29;20039;-63
2023/08/30 03:05:40;;;;;;;38.95;34.25;;;11.90;99.90;;;;;;4913999;29;20224;-63
2023/08/30 03:08:06;;;;;;;39.20;34.20;;;11.80;99.90;;;;;;4913910;29;20075;-63
2023/08/30 03:10:32;;;;;;;38.58;34.38;;;11.70;99.90;;;;;;4913986;29;20086;-64
2023/08/30 03:12:58;;;;;;;43.50;34.80;;;11.70;99.90;;;;;;4917288;29;20039;-63
2023/08/30 03:15:24;;;;;;;38.72;34.47;;;11.70;99.90;;;;;;4913343;29;20062;-64
2023/08/30 03:17:49;;;;;;;39.45;35.33;;;11.60;99.90;;;;;;4898366;29;20036;-64
2023/08/30 03:20:15;;;;;;;43.08;35.63;;;11.70;99.90;;;;;;4915556;29;20356;-64
2023/08/30 03:22:41;;;;;;;40.67;35.28;;;11.70;99.90;;;;;;4915515;29;20441;-64
2023/08/30 03:25:09;;;;;;;42.53;35.60;;;11.50;99.90;;;;;;4898444;29;20047;-64
2023/08/30 03:27:35;;;;;;;37.92;33.70;;;11.60;99.90;;;;;;4913803;29;20699;-63
2023/08/30 03:30:02;;;;;;;37.15;33.15;;;11.50;99.90;;;;;;4917393;29;20070;-64
2023/08/30 03:32:28;;;;;;;37.55;33.55;;;11.60;99.90;;;;;;4913214;29;20255;-63
2023/08/30 03:34:53;;;;;;;34.85;31.15;;;11.50;99.90;;;;;;4881980;29;20047;-64
2023/08/30 03:37:19;;;;;;;36.28;32.30;;;11.50;99.90;;;;;;4912739;29;20450;-64
2023/08/30 03:39:45;;;;;;;35.60;31.90;;;11.60;99.90;;;;;;4914792;29;20093;-64
2023/08/30 03:42:10;;;;;;;36.92;32.97;;;11.50;99.90;;;;;;4928797;28;20353;-64
2023/08/30 03:44:37;;;;;;;35.63;30.63;;;11.50;99.90;;;;;;4896848;29;20039;-64
2023/08/30 03:47:03;;;;;;;33.00;29.45;;;11.50;99.90;;;;;;4913843;29;20040;-64
2023/08/30 03:49:29;;;;;;;32.60;29.10;;;11.40;99.90;;;;;;4919053;29;20039;-65
2023/08/30 03:51:55;;;;;;;31.13;27.92;;;11.50;99.90;;;;;;4913578;29;20044;-64
2023/08/30 03:54:21;;;;;;;31.90;28.45;;;11.40;99.90;;;;;;4914893;29;20042;-64
2023/08/30 03:56:46;;;;;;;30.67;27.40;;;11.30;99.90;;;;;;4896907;29;20102;-65
2023/08/30 03:59:12;;;;;;;29.77;26.23;;;11.30;99.90;;;;;;4912526;29;20047;-63
2023/08/30 04:01:38;;;;;;;28.83;25.70;;;11.30;99.90;;;;;;4916002;29;20611;-64
2023/08/30 04:04:04;;;;;;;28.38;25.38;;;11.30;99.90;;;;;;4912933;29;20086;-63
2023/08/30 04:06:30;;;;;;;30.40;27.10;;;11.40;99.90;;;;;;4913055;29;20278;-64
2023/08/30 04:08:56;;;;;;;30.75;25.80;;;11.40;99.90;;;;;;4914388;29;20131;-63
2023/08/30 04:11:22;;;;;;;28.25;25.23;;;11.30;99.90;;;;;;4913030;29;20046;-63
2023/08/30 04:13:48;;;;;;;26.80;23.40;;;11.20;99.90;;;;;;4914246;28;20102;-63
2023/08/30 04:16:13;;;;;;;26.88;24.15;;;11.30;99.90;;;;;;4914184;29;20690;-63
2023/08/30 04:18:39;;;;;;;26.25;23.52;;;11.30;99.90;;;;;;4914255;29;20554;-64
2023/08/30 04:21:07;;;;;;;25.67;22.90;;;11.30;99.90;;;;;;4896874;29;20260;-63
2023/08/30 04:23:33;;;;;;;26.35;23.55;;;11.30;99.90;;;;;;4912993;29;20046;-64
2023/08/30 04:25:58;;;;;;;24.95;22.35;;;11.30;99.90;;;;;;4884432;29;20043;-63
2023/08/30 04:28:26;;;;;;;25.25;22.73;;;11.40;99.90;;;;;;4912896;29;20051;-64
2023/08/30 04:30:54;;;;;;;24.80;22.23;;;11.20;99.90;;;;;;4897217;29;20158;-64
2023/08/30 04:33:20;;;;;;;25.02;22.25;;;11.30;1.00;;;;;;4914153;29;20952;-63
2023/08/30 04:35:53;;;;;;;25.98;23.15;;;11.30;1.00;;;;;;4912599;29;20040;-63
2023/08/30 04:38:19;;;;;;;;;;;11.40;1.00;;;;;;4914905;29;20231;-64
2023/08/30 04:40:46;;;;;;;26.50;23.90;;;11.30;1.00;;;;;;4912744;29;19965;-63
2023/08/30 04:43:12;;;;;;;26.38;23.25;;;11.30;1.00;;;;;;4912525;29;20048;-64
2023/08/30 04:45:37;;;;;;;26.35;23.63;;;11.40;1.00;;;;;;4896927;29;20048;-64
2023/08/30 04:48:04;;;;;;;26.40;23.75;;;11.40;1.00;;;;;;4913946;29;20172;-64
2023/08/30 04:50:30;;;;;;;26.42;23.55;;;11.40;1.00;;;;;;4900220;29;20222;-63
2023/08/30 04:52:56;;;;;;;25.27;22.77;;;11.30;1.00;;;;;;4919803;29;20199;-65
2023/08/30 04:55:24;;;;;;;26.17;22.92;;;11.40;1.00;;;;;;4916364;29;20039;-65
2023/08/30 04:57:50;;;;;;;25.65;22.92;;;11.30;1.00;;;;;;4917437;29;20047;-64
2023/08/30 05:00:17;;;;;;;26.00;22.42;;;11.40;1.00;;;;;;4915421;29;20044;-65
2023/08/30 05:02:43;;;;;;;24.95;22.27;;;11.40;1.00;;;;;;4917913;29;20134;-65
2023/08/30 05:05:09;;;;;;;25.50;22.90;;;11.30;1.00;;;;;;4885108;29;20039;-65
2023/08/30 05:07:35;;;;;;;25.80;23.30;;;11.30;1.00;;;;;;4901225;29;20062;-66
2023/08/30 05:10:01;;;;;;;23.48;21.08;;;11.30;1.00;;;;;;4917363;29;20044;-63
2023/08/30 05:12:27;;;;;;;24.70;22.27;;;11.40;1.00;;;;;;4917113;29;20046;-63
2023/08/30 05:14:53;;;;;;;24.42;21.67;;;11.40;1.00;;;;;;4901612;29;20291;-63
2023/08/30 05:17:18;;;;;;;23.35;21.05;;;11.50;1.00;;;;;;4916101;29;20427;-64
2023/08/30 05:19:44;;;;;;;23.90;21.50;;;11.40;1.00;;;;;;4916235;29;20530;-63
2023/08/30 05:22:10;;;;;;;23.00;20.73;;;11.40;1.00;;;;;;4917586;29;20578;-64
2023/08/30 05:24:35;;;;;;;23.23;20.52;;;11.50;1.00;;;;;;4899019;29;20134;-64
2023/08/30 05:27:02;;;;;;;23.40;20.90;;;11.50;1.00;;;;;;4917201;29;20410;-64
2023/08/30 05:29:28;;;;;;;23.25;20.85;;;11.60;1.00;;;;;;4915076;29;20683;-64
2023/08/30 05:31:53;;;;;;;22.60;20.30;;;11.60;1.00;;;;;;4918157;29;20082;-64
2023/08/30 05:34:19;;;;;;;20.92;18.83;;;11.60;1.00;;;;;;4915359;29;20055;-64
2023/08/30 05:36:45;;;;;;;20.80;18.70;;;11.60;1.00;;;;;;4912408;29;20720;-64
2023/08/30 05:39:10;;;;;;;20.25;18.25;;;11.60;1.00;;;;;;4899126;29;20039;-64
2023/08/30 05:41:36;;;;;;;20.67;18.60;;;11.70;1.00;;;;;;4914772;29;20039;-64
2023/08/30 05:44:02;;;;;;;19.45;17.38;;;11.80;1.00;;;;;;4898625;29;20075;-63
2023/08/30 05:46:28;;;;;;;20.50;18.25;;;12.00;1.00;;;;;;4914264;29;20043;-63
2023/08/30 05:48:54;;;;;;;18.30;16.40;;;12.30;1.00;;;;;;4899456;29;20285;-63
2023/08/30 05:51:20;;;;;;;18.33;16.40;;;12.30;1.00;;;;;;4913294;29;20099;-64
2023/08/30 05:53:45;;;;;;;18.63;16.70;;;12.50;99.90;;;;;;4916056;29;20438;-65
2023/08/30 05:56:11;;;;;;;17.75;15.85;;;12.60;99.90;;;;;;4901208;29;20039;-64
2023/08/30 05:58:37;;;;;;;16.27;14.57;;;12.60;99.90;;;;;;4915114;29;20540;-64
2023/08/30 06:01:06;;;;;;;19.77;17.70;;;12.60;99.90;;;;;;4916675;29;20548;-65
2023/08/30 06:03:32;;;;;;;18.42;16.23;;;12.60;99.90;;;;;;4914869;29;21012;-64
2023/08/30 06:05:57;;;;;;;17.00;15.35;;;12.70;99.90;;;;;;4899068;29;20043;-65
2023/08/30 06:08:23;;;;;;;19.48;15.93;;;12.60;99.90;;;;;;4916607;29;20661;-64
2023/08/30 06:10:49;;;;;;;17.45;15.75;;;12.70;99.90;;;;;;4915232;29;20074;-65
2023/08/30 06:13:15;;;;;;;18.10;15.50;;;12.80;99.90;;;;;;4899914;29;20131;-65
2023/08/30 06:15:41;;;;;;;18.92;16.85;;;12.80;99.90;;;;;;4916934;29;20549;-65
2023/08/30 06:18:07;;;;;;;16.88;15.18;;;12.70;99.90;;;;;;4915704;29;20035;-65
2023/08/30 06:20:33;;;;;;;16.67;14.98;;;12.80;99.90;;;;;;4914757;29;20036;-65
2023/08/30 06:22:59;;;;;;;16.60;14.68;;;12.90;99.90;;;;;;4914992;29;20043;-65
2023/08/30 06:25:24;;;;;;;19.00;14.63;;;13.00;99.90;;;;;;4900577;29;20048;-64
2023/08/30 06:27:58;;;;;;;17.45;14.77;;;13.10;99.90;;;;;;4884357;29;20445;-64
2023/08/30 06:30:25;;;;;;;16.80;15.10;;;13.20;99.90;;;;;;4916560;29;20458;-64
2023/08/30 06:32:51;;;;;;;15.85;14.23;;;13.10;99.90;;;;;;4920537;29;20071;-64
2023/08/30 06:35:17;;;;;;;15.73;13.80;;;13.20;99.90;;;;;;4915531;29;20398;-64
2023/08/30 06:37:42;;;;;;;15.77;14.20;;;13.40;99.90;;;;;;4899171;29;20131;-64
2023/08/30 06:40:09;;;;;;;15.45;13.77;;;13.30;99.90;;;;;;4900073;29;20229;-64
2023/08/30 06:42:34;;;;;;;16.55;13.93;;;13.40;99.90;;;;;;4899495;29;20047;-64
2023/08/30 06:45:01;;;;;;;19.73;14.18;;;13.50;99.90;;;;;;4900168;29;20062;-64
2023/08/30 06:47:27;;;;;;;16.70;13.30;;;13.60;99.90;;;;;;4915894;29;20043;-65
2023/08/30 06:49:53;;;;;;;17.55;13.25;;;13.60;99.90;;;;;;4899240;29;20118;-65
2023/08/30 06:52:18;;;;;;;20.65;13.23;;;13.80;99.90;;;;;;4898527;29;20131;-65
2023/08/30 06:54:44;;;;;;;20.58;12.68;;;13.90;99.90;;;;;;4913918;29;20132;-64
2023/08/30 06:57:10;;;;;;;18.40;12.43;;;14.10;99.90;;;;;;4914553;29;20372;-64
2023/08/30 06:59:36;;;;;;;21.83;13.07;;;14.30;99.90;;;;;;4883680;29;20043;-64
2023/08/30 07:02:02;;;;;;;25.10;12.80;;;14.50;1.00;;;;;;4913932;29;20067;-64
2023/08/30 07:04:28;;;;;;;18.60;11.77;;;14.50;1.00;;;;;;4897766;29;20519;-64
2023/08/30 07:06:54;;;;;;;15.68;11.07;;;14.70;1.00;;;;;;4914415;29;20072;-64
2023/08/30 07:09:20;;;;;;;11.35;10.15;;;14.70;1.00;;;;;;4914055;29;20491;-64
2023/08/30 07:11:46;;;;;;;11.00;9.95;;;14.80;99.90;;;;;;4913990;29;21200;-64
2023/08/30 07:14:14;;;;;;;11.45;10.35;;;14.90;99.90;;;;;;4916387;29;20102;-64
2023/08/30 07:16:40;;;;;;;10.75;9.65;;;14.90;99.90;;;;;;4914122;29;20055;-64
2023/08/30 07:19:06;;;;;;;11.35;9.77;;;14.90;99.90;;;;;;4898597;29;21398;-64
2023/08/30 07:21:32;;;;;;;11.05;9.85;;;14.90;99.90;;;;;;4913544;29;20035;-65
2023/08/30 07:23:58;;;;;;;10.77;9.13;;;15.00;99.90;;;;;;4917294;29;20554;-64
2023/08/30 07:26:24;;;;;;;12.43;10.00;;;15.00;99.90;;;;;;4915387;29;20375;-64
2023/08/30 07:28:49;;;;;;;10.52;9.43;;;15.10;99.90;;;;;;4898859;29;20362;-64
2023/08/30 07:31:18;;;;;;;12.60;10.20;;;15.20;99.90;;;;;;4913986;29;20467;-64
2023/08/30 07:33:44;;;;;;;11.07;9.77;;;15.30;99.90;;;;;;4914391;29;20047;-65
2023/08/30 07:36:11;;;;;;;11.40;9.25;;;15.40;99.90;;;;;;4913295;29;20058;-65
2023/08/30 07:38:37;;;;;;;10.75;8.70;;;15.60;99.90;;;;;;4899042;29;20229;-65
2023/08/30 07:41:02;;;;;;;11.75;8.70;;;15.80;99.90;;;;;;4915446;29;20716;-65
2023/08/30 07:43:28;;;;;;;10.65;8.60;;;16.00;99.90;;;;;;4913922;29;20149;-65
2023/08/30 07:45:56;;;;;;;10.60;7.80;;;16.20;99.90;;;;;;4913517;29;20399;-64
2023/08/30 07:48:22;;;;;;;10.18;8.63;;;16.30;99.90;;;;;;4915077;29;20129;-64
2023/08/30 07:50:48;;;;;;;9.07;8.18;;;16.10;99.90;;;;;;4928660;28;20430;-65
2023/08/30 07:53:13;;;;;;;10.15;8.43;;;16.20;99.90;;;;;;4912526;29;20312;-65
2023/08/30 07:55:40;;;;;;;9.60;8.20;;;16.10;99.90;;;;;;4913756;29;20059;-65
2023/08/30 07:58:08;;;;;;;9.25;8.25;;;16.00;99.90;;;;;;4913626;29;20043;-65
2023/08/30 08:00:34;;;;;;;11.23;8.07;;;16.00;99.90;;;;;;4913915;29;20478;-65
2023/08/30 08:03:00;;;;;;;8.65;7.80;;;16.10;99.90;;;;;;4883027;29;20118;-65
2023/08/30 08:05:26;;;;;;;10.15;7.55;;;16.00;99.90;;;;;;4915082;29;20502;-64
2023/08/30 08:07:53;;;;;;;11.10;7.60;;;16.10;99.90;;;;;;4915176;29;20078;-65
2023/08/30 08:10:19;;;;;;;9.13;7.43;;;16.10;99.90;;;;;;4915182;29;20514;-64
2023/08/30 08:12:45;;;;;;;8.55;7.50;;;16.20;99.90;;;;;;4898585;29;20078;-64
2023/08/30 08:15:11;;;;;;;8.95;6.97;;;16.40;99.90;;;;;;4898404;29;20056;-65
2023/08/30 08:17:36;;;;;;;8.48;7.13;;;16.50;99.90;;;;;;4913778;29;20056;-65
2023/08/30 08:20:05;;;;;;;8.65;7.28;;;16.70;99.90;;;;;;4913659;29;20364;-65
2023/08/30 08:22:31;;;;;;;10.40;8.02;;;16.70;19.70;;;;;;4898043;29;20040;-65
2023/08/30 08:24:57;;;;;;;11.18;8.98;;;16.60;1.00;;;;;;4913753;29;20046;-65
2023/08/30 08:27:25;;;;;;;9.85;8.50;;;16.40;1.00;;;;;;4913846;29;20710;-65
2023/08/30 08:29:50;;;;;;;10.60;9.25;;;16.30;1.00;;;;;;4914329;29;20079;-64
2023/08/30 08:32:16;;;;;;;10.40;9.30;;;16.30;1.00;;;;;;4913833;29;20420;-65
2023/08/30 08:34:42;;;;;;;11.85;9.30;;;16.20;1.00;;;;;;4882263;29;20538;-65
2023/08/30 08:37:08;;;;;;;9.90;8.90;;;16.10;10.50;;;;;;4897469;29;20184;-65
2023/08/30 08:39:34;;;;;;;9.93;8.88;;;16.10;26.30;;;;;;4913881;29;20068;-64
2023/08/30 08:42:01;;;;;;;10.23;9.18;;;16.10;28.10;;;;;;4897644;29;20050;-64
2023/08/30 08:44:31;;;;;;;13.00;9.65;;;16.10;65.60;;;;;;4914776;29;20047;-64
2023/08/30 08:46:58;;;;;;;10.93;9.63;;;16.00;79.60;;;;;;4913820;29;20545;-64
2023/08/30 08:49:28;;;;;;;11.88;9.77;;;16.00;61.40;;;;;;4898149;29;20135;-65
2023/08/30 08:51:54;;;;;;;12.68;9.35;;;15.90;94.40;;;;;;4898229;29;20584;-64
2023/08/30 08:54:20;;;;;;;13.52;9.98;;;15.90;99.40;;;;;;4913978;29;20312;-64
2023/08/30 08:56:46;;;;;;;12.43;9.23;;;15.90;99.90;;;;;;4915351;29;20047;-65
2023/08/30 08:59:12;;;;;;;11.07;9.95;;;15.90;99.90;;;;;;4914882;29;20115;-65
2023/08/30 09:01:41;;;;;;;12.48;10.30;;;15.90;99.90;;;;;;4897733;29;20040;-65
2023/08/30 09:04:09;;;;;;;10.77;9.18;;;15.90;99.90;;;;;;4913477;29;20070;-64
2023/08/30 09:06:43;;;;;;;11.50;10.27;;;15.90;99.90;;;;;;4913578;29;20047;-65
2023/08/30 09:09:09;;;;;;;10.60;9.25;;;16.00;99.90;;;;;;4914039;29;20510;-66
2023/08/30 09:11:35;;;;;;;11.45;9.48;;;16.10;99.90;;;;;;4897737;29;20395;-65
2023/08/30 09:14:01;;;;;;;12.52;10.23;;;16.20;99.90;;;;;;4913411;29;20086;-65
2023/08/30 09:16:27;;;;;;;11.52;9.88;;;16.40;99.90;;;;;;4912374;29;20059;-65
2023/08/30 09:19:00;;;;;;;12.07;9.90;;;16.50;99.90;;;;;;4912901;29;20153;-64
2023/08/30 09:21:26;;;;;;;12.25;9.45;;;16.60;74.30;;;;;;4913656;29;20047;-65
2023/08/30 09:23:59;;;;;;;12.57;9.60;;;16.70;94.20;;;;;;4913679;29;20056;-65
2023/08/30 09:26:28;;;;;;;11.02;9.80;;;16.80;40.00;;;;;;4896878;29;20521;-64
2023/08/30 09:28:54;;;;;;;11.77;10.23;;;16.80;51.20;;;;;;4912672;29;20051;-64
2023/08/30 09:31:20;;;;;;;10.30;8.93;;;16.90;48.70;;;;;;4897213;29;20051;-64
2023/08/30 09:33:49;;;;;;;13.20;9.75;;;17.00;87.60;;;;;;4898127;29;20062;-65
2023/08/30 09:36:15;;;;;;;11.32;10.13;;;17.10;79.10;;;;;;4917061;29;20431;-64
2023/08/30 09:38:41;;;;;;;12.32;10.23;;;17.00;3.00;;;;;;4917714;29;20055;-65
2023/08/30 09:41:06;;;;;;;11.80;9.85;;;17.00;5.70;;;;;;4916984;29;20102;-65
2023/08/30 09:43:36;;;;;;;13.02;10.73;;;16.90;25.40;;;;;;4916531;29;20422;-65
2023/08/30 09:46:05;;;;;;;12.27;11.02;;;17.00;30.00;;;;;;4885001;29;20043;-66
2023/08/30 09:48:32;;;;;;;11.45;10.25;;;17.00;1.00;;;;;;4916729;29;20305;-65
2023/08/30 09:51:02;;;;;;;15.05;10.98;;;16.90;43.40;;;;;;4900594;29;20115;-65
2023/08/30 09:53:32;;;;;;;13.00;9.77;;;17.00;56.90;;;;;;4916246;29;20420;-65
2023/08/30 09:55:59;;;;;;;11.43;10.10;;;17.10;48.80;;;;;;4916196;29;20670;-65
2023/08/30 09:58:27;;;;;;;10.82;9.65;;;17.00;99.90;;;;;;4916143;29;20134;-65
2023/08/30 10:00:54;;;;;;;10.88;9.68;;;17.00;75.00;;;;;;4917223;29;20047;-65
2023/08/30 10:03:25;;;;;;;13.43;10.02;;;17.00;75.90;;;;;;4916822;29;20059;-65
2023/08/30 10:05:53;;;;;;;9.65;7.75;;;16.90;99.90;;;;;;4899201;29;20051;-65
2023/08/30 10:08:20;;;;;;;9.88;8.13;;;16.90;1.00;;;;;;4915205;29;20168;-65
2023/08/30 10:10:46;;;;;;;8.60;6.95;;;16.80;56.70;;;;;;4914477;29;20047;-64
2023/08/30 10:13:13;;;;;;;12.30;7.35;;;16.80;1.00;;;;;;4915495;29;20284;-65
2023/08/30 10:15:45;;;;;;;8.57;7.32;;;16.80;1.00;;;;;;4899194;29;20051;-65
2023/08/30 10:18:14;;;;;;;8.30;7.20;;;16.90;1.00;;;;;;4914641;29;20309;-65
2023/08/30 10:20:41;;;;;;;9.05;6.65;;;17.00;1.00;;;;;;4914897;29;20034;-66
2023/08/30 10:23:08;;;;;;;8.88;6.40;;;17.00;1.00;;;;;;4899384;29;20186;-64
2023/08/30 10:25:34;;;;;;;10.90;6.90;;;16.90;1.00;;;;;;4915336;29;20044;-65
2023/08/30 10:28:01;;;;;;;8.90;6.63;;;16.80;1.00;;;;;;4915288;29;20043;-64
2023/08/30 10:30:27;;;;;;;7.93;6.30;;;16.60;1.00;;;;;;4914350;29;20039;-64
2023/08/30 10:32:53;;;;;;;10.32;6.30;;;16.50;1.00;;;;;;4915031;29;20043;-65
2023/08/30 10:35:19;;;;;;;11.13;6.30;;;16.40;14.30;;;;;;4914318;29;20103;-64
2023/08/30 10:37:59;;;;;;;10.20;6.30;;;16.50;60.20;;;;;;4882759;29;20319;-64
2023/08/30 10:40:25;;;;;;;9.77;6.47;;;16.60;95.10;;;;;;4915986;29;20042;-65
2023/08/30 10:43:04;;;;;;;8.20;6.28;;;16.60;99.90;;;;;;4898917;29;20157;-64
2023/08/30 10:45:30;;;;;;;7.70;6.10;;;16.80;99.90;;;;;;4915614;29;20561;-64
2023/08/30 10:47:57;;;;;;;9.60;6.85;;;17.10;99.90;;;;;;4916020;29;20051;-64
2023/08/30 10:50:31;;;;;;;7.43;6.68;;;17.30;99.90;;;;;;4914591;29;20139;-63
2023/08/30 10:52:57;;;;;;;7.60;6.65;;;17.30;30.00;;;;;;4914962;29;20086;-63
2023/08/30 10:55:23;;;;;;;8.60;7.20;;;17.40;46.10;;;;;;4914771;29;20119;-63
2023/08/30 10:58:00;;;;;;;10.57;7.25;;;17.60;19.40;;;;;;4914506;29;20482;-63
2023/08/30 11:00:30;;;;;;;9.23;8.25;;;17.60;1.00;;;;;;4916333;29;20407;-64
2023/08/30 11:02:56;;;;;;;8.75;7.75;;;17.60;1.00;;;;;;4914140;29;20518;-64
2023/08/30 11:05:24;;;;;;;10.18;7.65;;;17.50;1.00;;;;;;4916170;29;20251;-64
2023/08/30 11:07:51;;;;;;;10.98;8.05;;;17.60;1.00;;;;;;4914307;29;20297;-64
2023/08/30 11:10:17;;;;;;;9.40;7.50;;;17.70;1.00;;;;;;4916034;29;20237;-63
2023/08/30 11:12:44;;;;;;;8.27;7.13;;;17.70;1.00;;;;;;4915916;29;20362;-64
2023/08/30 11:15:13;;;;;;;10.50;7.55;;;17.70;1.00;;;;;;4914235;29;20522;-64
2023/08/30 11:17:39;;;;;;;8.75;7.03;;;17.60;1.00;;;;;;4917359;29;20048;-63
2023/08/30 11:20:13;;;;;;;7.68;6.95;;;17.50;1.00;;;;;;4914352;29;20047;-64
2023/08/30 11:22:44;;;;;;;6.40;5.20;;;17.50;1.00;;;;;;4913534;29;20103;-63
2023/08/30 11:25:11;;;;;;;5.57;4.97;;;17.50;1.00;;;;;;4916065;29;20533;-64
2023/08/30 11:27:38;;;;;;;6.18;4.70;;;17.40;1.00;;;;;;4898347;29;20043;-63
2023/08/30 11:30:05;;;;;;;6.20;5.50;;;17.60;45.20;;;;;;4897688;29;20039;-64
2023/08/30 11:32:35;;;;;;;7.25;6.50;;;17.80;1.00;;;;;;4913660;29;20122;-63
2023/08/30 11:35:01;;;;;;;6.72;5.70;;;18.00;1.00;;;;;;4917868;29;20264;-64
2023/08/30 11:37:28;;;;;;;5.97;5.13;;;18.00;1.00;;;;;;4916201;29;20036;-63
2023/08/30 11:39:55;;;;;;;6.20;5.38;;;18.10;1.00;;;;;;4914317;29;20050;-63
2023/08/30 11:42:21;;;;;;;4.90;4.35;;;17.90;1.00;;;;;;4898012;29;20043;-63
2023/08/30 11:44:47;;;;;;;6.18;3.85;;;18.00;1.00;;;;;;4897633;29;20391;-64
2023/08/30 11:47:27;;;;;;;6.35;3.17;;;18.00;1.00;;;;;;4897970;29;20048;-63
2023/08/30 11:49:57;;;;;;;2.47;2.05;;;18.00;1.00;;;;;;4915365;29;20062;-63
2023/08/30 11:52:24;;;;;;;3.65;1.73;;;18.10;1.00;;;;;;4897786;29;20231;-63
2023/08/30 11:54:51;;;;;;;1.70;1.50;;;18.00;1.00;;;;;;4914923;29;20538;-63
2023/08/30 11:57:17;;;;;;;5.00;1.92;;;18.00;1.00;;;;;;4912991;29;20040;-64
2023/08/30 11:59:43;;;;;;;3.05;2.75;;;17.90;1.00;;;;;;4897264;29;20114;-63
2023/08/30 12:02:09;;;;;;;5.95;4.35;;;18.00;1.00;;;;;;4898363;29;20051;-64
2023/08/30 12:04:42;;;;;;;4.65;4.10;;;18.00;1.00;;;;;;4913908;29;20050;-64
2023/08/30 12:07:08;;;;;;;;;;;18.00;1.00;;;;;;4913572;29;20051;-64
2023/08/30 12:09:34;;;;;;;6.10;3.88;;;17.90;1.00;;;;;;4899511;29;20164;-63
2023/08/30 12:12:13;;;;;;;2.75;2.20;;;17.90;1.00;;;;;;4898605;29;20446;-63
2023/08/30 12:14:39;;;;;;;3.78;2.30;;;17.80;1.00;;;;;;4913370;29;20330;-63
2023/08/30 12:17:05;;;;;;;4.35;2.63;;;17.70;1.00;;;;;;4913758;29;20118;-63
2023/08/30 12:19:34;;;;;;;3.85;2.67;;;17.50;1.00;;;;;;4912895;29;20075;-64
2023/08/30 12:22:09;;;;;;;5.70;3.10;;;17.40;1.00;;;;;;4896833;29;20566;-63
2023/08/30 12:24:45;;;;;;;6.28;3.40;;;17.30;1.00;;;;;;4913021;29;20521;-63
2023/08/30 12:27:10;;;;;;;4.25;3.78;;;17.20;1.00;;;;;;4912990;29;20672;-63
2023/08/30 12:29:36;;;;;;;5.07;4.10;;;17.10;1.00;;;;;;4912816;29;20207;-64
2023/08/30 12:32:02;;;;;;;5.47;4.10;;;17.00;1.00;;;;;;4912711;29;20048;-63
2023/08/30 12:34:28;;;;;;;6.40;4.82;;;17.00;18.10;;;;;;4913666;29;20044;-63